Time,TemperatureF,DewpointF,PressureIn,WindDirection,WindDirectionDegrees,WindSpeedMPH,WindSpeedGustMPH,Humidity,HourlyPrecipIn,Conditions,Clouds,dailyrainin,SoftwareType,DateUTC
2013-07-26 00:04:00,47.7,40.8,30.30,NE,41,0.0,7.0,77,0.00,CLR,,0.00,WeatherDisplay:10.37,2013-07-25 14:04:00,
2013-07-26 00:09:00,47.6,40.8,30.31,NNE,12,0.0,7.0,77,0.00,CLR,,0.00,WeatherDisplay:10.37,2013-07-25 14:09:00,
2013-07-26 00:14:00,47.5,40.6,30.30,NW,307,0.0,1.0,77,0.00,CLR,,0.00,WeatherDisplay:10.37,2013-07-25 14:14:00,
2013-07-26 00:19:00,47.3,40.5,30.31,West,277,0.0,1.0,77,0.00,CLR,,0.00,WeatherDisplay:10.37,2013-07-25 14:19:00,
2013-07-26 00:24:00,47.3,40.5,30.31,West,273,0.0,0.0,77,0.00,CLR,,0.00,WeatherDisplay:10.37,2013-07-25 14:24:00,
2013-07-26 00:29:00,47.1,40.3,30.31,West,281,0.0,0.0,77,0.00,CLR,,0.00,WeatherDisplay:10.37,2013-07-25 14:29:00,
2013-07-26 00:34:00,47.0,39.8,30.30,WNW,292,0.0,0.0,76,0.00,CLR,,0.00,WeatherDisplay:10.37,2013-07-25 14:34:00,
2013-07-26 00:39:00,46.7,39.5,30.30,WNW,293,0.0,7.0,76,0.00,CLR,,0.00,WeatherDisplay:10.37,2013-07-25 14:39:00,
2013-07-26 00:44:00,46.7,39.9,30.30,WNW,291,0.0,1.0,77,0.00,CLR,,0.00,WeatherDisplay:10.37,2013-07-25 14:44:00,
2013-07-26 00:49:00,47.1,40.2,30.30,North,9,0.0,1.0,77,0.00,CLR,,0.00,WeatherDisplay:10.37,2013-07-25 14:49:00,
2013-07-26 00:54:00,47.1,40.3,30.30,NNE,18,0.0,1.0,77,0.00,CLR,,0.00,WeatherDisplay:10.37,2013-07-25 14:54:00,
2013-07-26 00:59:00,47.1,40.3,30.30,NNE,21,0.0,0.0,77,0.00,CLR,,0.00,WeatherDisplay:10.37,2013-07-25 14:59:00,
2013-07-26 01:04:00,46.9,39.8,30.30,NNE,22,0.0,0.0,76,0.00,CLR,,0.00,WeatherDisplay:10.37,2013-07-25 15:04:00,
2013-07-26 01:09:00,46.8,39.6,30.29,NNW,332,0.0,0.0,76,0.00,CLR,,0.00,WeatherDisplay:10.37,2013-07-25 15:09:00,
2013-07-26 01:14:00,46.6,39.4,30.29,WNW,292,0.0,0.0,76,0.00,CLR,,0.00,WeatherDisplay:10.37,2013-07-25 15:14:00,
2013-07-26 01:19:00,46.2,39.1,30.30,WNW,292,0.0,0.0,76,0.00,CLR,,0.00,WeatherDisplay:10.37,2013-07-25 15:19:00,
2013-07-26 01:24:00,46.2,39.1,30.29,WNW,292,0.0,0.0,76,0.00,CLR,,0.00,WeatherDisplay:10.37,2013-07-25 15:24:00,
2013-07-26 01:29:00,46.2,39.4,30.29,WNW,293,0.0,0.0,77,0.00,CLR,,0.00,WeatherDisplay:10.37,2013-07-25 15:29:00,
2013-07-26 01:34:00,46.4,39.6,30.29,WNW,293,0.0,0.0,77,0.00,CLR,,0.00,WeatherDisplay:10.37,2013-07-25 15:34:00,
2013-07-26 01:39:00,46.6,39.8,30.29,WNW,292,0.0,0.0,77,0.00,CLR,,0.00,WeatherDisplay:10.37,2013-07-25 15:39:00,
2013-07-26 01:44:00,46.6,39.8,30.29,WNW,292,0.0,0.0,77,0.00,CLR,,0.00,WeatherDisplay:10.37,2013-07-25 15:44:00,
2013-07-26 01:49:00,46.3,39.5,30.29,WNW,291,0.0,0.0,77,0.00,CLR,,0.00,WeatherDisplay:10.37,2013-07-25 15:49:00,
2013-07-26 01:54:00,46.1,39.3,30.29,WNW,288,0.0,0.0,77,0.00,CLR,,0.00,WeatherDisplay:10.37,2013-07-25 15:54:00,
2013-07-26 01:59:00,46.0,39.6,30.28,West,277,0.0,0.0,78,0.00,CLR,,0.00,WeatherDisplay:10.37,2013-07-25 15:59:00,
2013-07-26 02:04:00,46.0,39.6,30.28,West,270,0.0,0.0,78,0.00,CLR,,0.00,WeatherDisplay:10.37,2013-07-25 16:04:00,
2013-07-26 02:09:00,46.0,39.6,30.28,West,270,0.0,0.0,78,0.00,CLR,,0.00,WeatherDisplay:10.37,2013-07-25 16:09:00,
2013-07-26 02:14:00,45.9,39.4,30.28,West,270,0.0,0.0,78,0.00,CLR,,0.00,WeatherDisplay:10.37,2013-07-25 16:14:00,
2013-07-26 02:19:00,45.7,39.2,30.28,West,272,0.0,0.0,78,0.00,CLR,,0.00,WeatherDisplay:10.37,2013-07-25 16:19:00,
2013-07-26 02:24:00,45.7,39.2,30.28,West,272,0.0,0.0,78,0.00,CLR,,0.00,WeatherDisplay:10.37,2013-07-25 16:24:00,
2013-07-26 02:29:00,45.7,39.2,30.27,NNE,17,0.0,0.0,78,0.00,CLR,,0.00,WeatherDisplay:10.37,2013-07-25 16:29:00,
2013-07-26 02:34:00,45.6,39.1,30.27,NE,44,0.0,0.0,78,0.00,CLR,,0.00,WeatherDisplay:10.37,2013-07-25 16:34:00,
2013-07-26 02:39:00,45.4,38.9,30.27,NNE,28,0.0,0.0,78,0.00,CLR,,0.00,WeatherDisplay:10.37,2013-07-25 16:39:00,
2013-07-26 02:44:00,45.3,38.9,30.27,NNE,22,0.0,0.0,78,0.00,CLR,,0.00,WeatherDisplay:10.37,2013-07-25 16:44:00,
2013-07-26 02:49:00,45.3,38.9,30.26,NE,41,0.0,0.0,78,0.00,CLR,,0.00,WeatherDisplay:10.37,2013-07-25 16:49:00,
2013-07-26 02:54:00,45.3,38.5,30.26,East,82,0.0,0.0,77,0.00,CLR,,0.00,WeatherDisplay:10.37,2013-07-25 16:54:00,
2013-07-26 02:59:00,45.1,38.4,30.26,ESE,112,0.0,7.0,77,0.00,CLR,,0.00,WeatherDisplay:10.37,2013-07-25 16:59:00,
2013-07-26 03:04:00,45.1,38.4,30.26,SSE,148,0.0,0.0,77,0.00,CLR,,0.00,WeatherDisplay:10.37,2013-07-25 17:04:00,
2013-07-26 03:09:00,45.1,38.4,30.26,South,170,0.0,0.0,77,0.00,CLR,,0.00,WeatherDisplay:10.37,2013-07-25 17:09:00,
2013-07-26 03:14:00,44.8,38.0,30.26,South,180,0.0,0.0,77,0.00,CLR,,0.00,WeatherDisplay:10.37,2013-07-25 17:14:00,
2013-07-26 03:19:00,44.8,38.3,30.26,South,180,0.0,0.0,78,0.00,CLR,,0.00,WeatherDisplay:10.37,2013-07-25 17:19:00,
2013-07-26 03:24:00,45.0,38.2,30.26,South,180,0.0,0.0,77,0.00,CLR,,0.00,WeatherDisplay:10.37,2013-07-25 17:24:00,
2013-07-26 03:29:00,45.0,38.2,30.26,South,180,0.0,0.0,77,0.00,CLR,,0.00,WeatherDisplay:10.37,2013-07-25 17:29:00,
2013-07-26 03:34:00,44.8,38.1,30.26,South,180,0.0,0.0,77,0.00,CLR,,0.00,WeatherDisplay:10.37,2013-07-25 17:34:00,
2013-07-26 03:39:00,44.6,38.2,30.26,South,180,0.0,0.0,78,0.00,CLR,,0.00,WeatherDisplay:10.37,2013-07-25 17:39:00,
2013-07-26 03:44:00,44.6,38.2,30.26,South,180,0.0,0.0,78,0.00,CLR,,0.00,WeatherDisplay:10.37,2013-07-25 17:44:00,
2013-07-26 03:49:00,44.4,38.0,30.25,South,180,0.0,0.0,78,0.00,CLR,,0.00,WeatherDisplay:10.37,2013-07-25 17:49:00,
2013-07-26 03:54:00,44.5,38.4,30.26,SSE,158,0.0,0.0,79,0.00,CLR,,0.00,WeatherDisplay:10.37,2013-07-25 17:54:00,
2013-07-26 03:59:00,44.6,38.4,30.26,SE,136,0.0,0.0,79,0.00,CLR,,0.00,WeatherDisplay:10.37,2013-07-25 17:59:00,
2013-07-26 04:04:00,44.4,38.3,30.26,SE,137,0.0,0.0,79,0.00,CLR,,0.00,WeatherDisplay:10.37,2013-07-25 18:04:00,
2013-07-26 04:09:00,44.4,38.3,30.26,South,171,0.0,1.0,79,0.00,CLR,,0.00,WeatherDisplay:10.37,2013-07-25 18:09:00,
2013-07-26 04:14:00,44.4,38.3,30.26,SW,218,0.0,1.0,79,0.00,CLR,,0.00,WeatherDisplay:10.37,2013-07-25 18:14:00,
2013-07-26 04:19:00,44.4,38.3,30.26,SSW,204,0.0,1.0,79,0.00,CLR,,0.00,WeatherDisplay:10.37,2013-07-25 18:19:00,
2013-07-26 04:24:00,44.2,38.1,30.26,South,171,0.0,0.0,79,0.00,CLR,,0.00,WeatherDisplay:10.37,2013-07-25 18:24:00,
2013-07-26 04:29:00,44.1,38.0,30.26,SSE,156,0.0,1.0,79,0.00,CLR,,0.00,WeatherDisplay:10.37,2013-07-25 18:29:00,
2013-07-26 04:34:00,44.2,38.5,30.26,ESE,119,0.0,1.0,80,0.00,CLR,,0.00,WeatherDisplay:10.37,2013-07-25 18:34:00,
2013-07-26 04:39:00,44.4,38.6,30.26,ENE,57,0.0,1.0,80,0.00,CLR,,0.00,WeatherDisplay:10.37,2013-07-25 18:39:00,
2013-07-26 04:44:00,44.4,38.6,30.26,SE,137,0.0,0.0,80,0.00,CLR,,0.00,WeatherDisplay:10.37,2013-07-25 18:44:00,
2013-07-26 04:49:00,44.4,38.6,30.26,SSE,151,0.0,1.0,80,0.00,CLR,,0.00,WeatherDisplay:10.37,2013-07-25 18:49:00,
2013-07-26 04:54:00,44.4,38.6,30.26,East,87,0.0,1.0,80,0.00,CLR,,0.00,WeatherDisplay:10.37,2013-07-25 18:54:00,
2013-07-26 04:59:00,44.2,38.5,30.26,NNE,28,0.0,0.0,80,0.00,CLR,,0.00,WeatherDisplay:10.37,2013-07-25 18:59:00,
2013-07-26 05:04:00,44.3,38.6,30.26,NE,54,0.0,7.0,80,0.00,CLR,,0.00,WeatherDisplay:10.37,2013-07-25 19:04:00,
2013-07-26 05:09:00,44.4,38.6,30.26,ENE,71,0.0,7.0,80,0.00,CLR,,0.00,WeatherDisplay:10.37,2013-07-25 19:09:00,
2013-07-26 05:14:00,44.4,38.6,30.26,NE,45,1.0,2.0,80,0.00,CLR,,0.00,WeatherDisplay:10.37,2013-07-25 19:14:00,
2013-07-26 05:19:00,44.6,39.1,30.26,NE,41,0.0,1.0,81,0.00,CLR,,0.00,WeatherDisplay:10.37,2013-07-25 19:19:00,
2013-07-26 05:24:00,44.4,38.6,30.26,WNW,294,0.0,0.0,80,0.00,CLR,,0.00,WeatherDisplay:10.37,2013-07-25 19:24:00,
2013-07-26 05:29:00,44.4,38.6,30.26,WSW,253,0.0,1.0,80,0.00,CLR,,0.00,WeatherDisplay:10.37,2013-07-25 19:29:00,
2013-07-26 05:34:00,44.1,38.4,30.26,WSW,237,0.0,0.0,80,0.00,CLR,,0.00,WeatherDisplay:10.37,2013-07-25 19:34:00,
2013-07-26 05:39:00,44.1,38.3,30.26,SW,223,0.0,1.0,80,0.00,CLR,,0.00,WeatherDisplay:10.37,2013-07-25 19:39:00,
2013-07-26 05:44:00,44.1,38.4,30.26,SSE,167,0.0,1.0,80,0.00,CLR,,0.00,WeatherDisplay:10.37,2013-07-25 19:44:00,
2013-07-26 05:49:00,44.2,38.5,30.27,East,91,0.0,0.0,80,0.00,CLR,,0.00,WeatherDisplay:10.37,2013-07-25 19:49:00,
2013-07-26 05:59:00,44.2,38.8,30.27,ESE,105,0.0,0.0,81,0.00,CLR,,0.00,WeatherDisplay:10.37,2013-07-25 19:59:00,
2013-07-26 06:04:00,44.2,38.8,30.26,ENE,63,0.0,0.0,81,0.00,CLR,,0.00,WeatherDisplay:10.37,2013-07-25 20:04:00,
2013-07-26 06:09:00,44.2,38.5,30.27,East,88,0.0,0.0,80,0.00,CLR,,0.00,WeatherDisplay:10.37,2013-07-25 20:09:00,
2013-07-26 06:14:00,43.9,38.1,30.27,ESE,108,0.0,0.0,80,0.00,CLR,,0.00,WeatherDisplay:10.37,2013-07-25 20:14:00,
2013-07-26 06:19:00,44.2,38.8,30.27,East,88,0.0,0.0,81,0.00,CLR,,0.00,WeatherDisplay:10.37,2013-07-25 20:19:00,
2013-07-26 06:24:00,44.2,38.8,30.27,ENE,69,0.0,0.0,81,0.00,CLR,,0.00,WeatherDisplay:10.37,2013-07-25 20:24:00,
2013-07-26 06:29:00,44.4,39.2,30.27,NE,42,0.0,2.0,82,0.00,CLR,,0.00,WeatherDisplay:10.37,2013-07-25 20:29:00,
2013-07-26 06:34:00,44.7,39.6,30.27,NNW,330,1.0,2.0,82,0.00,CLR,,0.00,WeatherDisplay:10.37,2013-07-25 20:34:00,
2013-07-26 06:39:00,45.1,40.0,30.27,WNW,296,0.0,2.0,82,0.00,CLR,,0.00,WeatherDisplay:10.37,2013-07-25 20:39:00,
2013-07-26 06:44:00,45.3,40.1,30.28,WSW,257,0.0,1.0,82,0.00,CLR,,0.00,WeatherDisplay:10.37,2013-07-25 20:44:00,
2013-07-26 06:49:00,45.5,40.6,30.28,WSW,242,1.0,3.0,83,0.00,CLR,,0.00,WeatherDisplay:10.37,2013-07-25 20:49:00,
2013-07-26 06:54:00,45.7,40.8,30.28,WNW,283,2.0,3.0,83,0.00,CLR,,0.00,WeatherDisplay:10.37,2013-07-25 20:54:00,
2013-07-26 06:59:00,46.0,41.2,30.29,West,275,1.0,4.0,83,0.00,CLR,,0.00,WeatherDisplay:10.37,2013-07-25 20:59:00,
2013-07-26 07:04:00,46.0,40.9,30.29,WNW,288,1.0,4.0,82,0.00,CLR,,0.00,WeatherDisplay:10.37,2013-07-25 21:04:00,
2013-07-26 07:09:00,46.0,40.9,30.29,WNW,301,1.0,2.0,82,0.00,CLR,,0.00,WeatherDisplay:10.37,2013-07-25 21:09:00,
2013-07-26 07:14:00,46.2,41.0,30.29,NW,315,2.0,5.0,82,0.00,CLR,,0.00,WeatherDisplay:10.37,2013-07-25 21:14:00,
2013-07-26 07:19:00,46.2,41.0,30.29,NW,312,2.0,8.0,82,0.00,CLR,,0.00,WeatherDisplay:10.37,2013-07-25 21:19:00,
2013-07-26 07:29:00,46.2,40.7,30.29,NW,319,5.0,7.0,81,0.00,CLR,,0.00,WeatherDisplay:10.37,2013-07-25 21:29:00,
2013-07-26 07:34:00,46.4,40.9,30.29,NW,317,2.0,6.0,81,0.00,CLR,,0.00,WeatherDisplay:10.37,2013-07-25 21:34:00,
2013-07-26 07:39:00,46.5,40.9,30.29,NW,311,2.0,7.0,81,0.00,CLR,,0.00,WeatherDisplay:10.37,2013-07-25 21:39:00,
2013-07-26 07:44:00,46.6,41.1,30.29,NW,311,2.0,5.0,81,0.00,CLR,,0.00,WeatherDisplay:10.37,2013-07-25 21:44:00,
2013-07-26 07:49:00,46.6,41.1,30.29,NW,326,3.0,7.0,81,0.00,CLR,,0.00,WeatherDisplay:10.37,2013-07-25 21:49:00,
2013-07-26 07:54:00,46.7,41.2,30.29,NNW,332,2.0,6.0,81,0.00,CLR,,0.00,WeatherDisplay:10.37,2013-07-25 21:54:00,
2013-07-26 07:59:00,47.0,41.2,30.29,NNW,331,2.0,3.0,80,0.00,CLR,,0.00,WeatherDisplay:10.37,2013-07-25 21:59:00,
2013-07-26 08:04:00,47.1,41.3,30.29,NNW,336,6.0,9.0,80,0.00,CLR,,0.00,WeatherDisplay:10.37,2013-07-25 22:04:00,
2013-07-26 08:09:00,47.5,41.6,30.29,NNW,338,5.0,12.0,80,0.00,CLR,,0.00,WeatherDisplay:10.37,2013-07-25 22:09:00,
2013-07-26 08:14:00,47.5,41.6,30.29,NNW,339,6.0,6.0,80,0.00,CLR,,0.00,WeatherDisplay:10.37,2013-07-25 22:14:00,
2013-07-26 08:19:00,47.7,41.5,30.29,NNW,337,5.0,6.0,79,0.00,CLR,,0.00,WeatherDisplay:10.37,2013-07-25 22:19:00,
2013-07-26 08:24:00,47.8,41.6,30.29,NNW,337,3.0,5.0,79,0.00,CLR,,0.00,WeatherDisplay:10.37,2013-07-25 22:24:00,
2013-07-26 08:29:00,47.8,41.6,30.29,NNW,337,5.0,5.0,79,0.00,CLR,,0.00,WeatherDisplay:10.37,2013-07-25 22:29:00,
2013-07-26 08:34:00,47.8,41.6,30.29,NNW,339,1.0,5.0,79,0.00,CLR,,0.00,WeatherDisplay:10.37,2013-07-25 22:34:00,
2013-07-26 08:39:00,47.8,41.6,30.29,NNW,340,6.0,7.0,79,0.00,CLR,,0.00,WeatherDisplay:10.37,2013-07-25 22:39:00,
2013-07-26 08:44:00,47.8,41.6,30.29,NNW,340,6.0,7.0,79,0.00,CLR,,0.00,WeatherDisplay:10.37,2013-07-25 22:44:00,
2013-07-26 08:49:00,47.8,41.6,30.29,NNW,338,2.0,2.0,79,0.00,CLR,,0.00,WeatherDisplay:10.37,2013-07-25 22:49:00,
2013-07-26 08:54:00,47.7,41.5,30.29,NNW,338,2.0,2.0,79,0.00,CLR,,0.00,WeatherDisplay:10.37,2013-07-25 22:54:00,
2013-07-26 08:59:00,47.8,41.6,30.29,NNW,336,3.0,5.0,79,0.00,CLR,,0.00,WeatherDisplay:10.37,2013-07-25 22:59:00,
2013-07-26 09:04:00,48.0,41.5,30.29,NNW,340,7.0,9.0,78,0.00,CLR,,0.00,WeatherDisplay:10.37,2013-07-25 23:04:00,
2013-07-26 09:09:00,48.4,41.8,30.29,NNW,333,3.0,7.0,78,0.00,CLR,,0.00,WeatherDisplay:10.37,2013-07-25 23:09:00,
2013-07-26 09:14:00,48.7,42.1,30.29,NW,320,5.0,8.0,78,0.00,CLR,,0.00,WeatherDisplay:10.37,2013-07-25 23:14:00,
2013-07-26 09:19:00,49.1,42.5,30.28,NW,317,6.0,10.0,78,0.00,CLR,,0.00,WeatherDisplay:10.37,2013-07-25 23:19:00,
2013-07-26 09:24:00,49.6,42.6,30.28,NW,318,5.0,8.0,77,0.00,CLR,,0.00,WeatherDisplay:10.37,2013-07-25 23:24:00,
2013-07-26 09:29:00,49.8,42.9,30.28,NW,320,6.0,10.0,77,0.00,CLR,,0.00,WeatherDisplay:10.37,2013-07-25 23:29:00,
2013-07-26 09:34:00,50.2,42.9,30.28,NW,313,3.0,9.0,76,0.00,CLR,,0.00,WeatherDisplay:10.37,2013-07-25 23:34:00,
2013-07-26 09:39:00,50.5,43.3,30.28,NW,316,3.0,8.0,76,0.00,CLR,,0.00,WeatherDisplay:10.37,2013-07-25 23:39:00,
2013-07-26 09:44:00,50.9,43.6,30.28,NW,318,5.0,10.0,76,0.00,CLR,,0.00,WeatherDisplay:10.37,2013-07-25 23:44:00,
2013-07-26 09:49:00,51.1,43.4,30.28,NW,323,6.0,9.0,75,0.00,CLR,,0.00,WeatherDisplay:10.37,2013-07-25 23:49:00,
2013-07-26 09:54:00,51.4,43.8,30.28,NNW,327,6.0,12.0,75,0.00,CLR,,0.00,WeatherDisplay:10.37,2013-07-25 23:54:00,
2013-07-26 09:59:00,51.6,44.0,30.28,NNW,327,5.0,10.0,75,0.00,CLR,,0.00,WeatherDisplay:10.37,2013-07-25 23:59:00,
2013-07-26 10:04:00,51.6,44.0,30.28,NW,324,5.0,7.0,75,0.00,CLR,,0.00,WeatherDisplay:10.37,2013-07-26 00:04:00,
2013-07-26 10:09:00,51.8,44.2,30.28,NNW,327,6.0,9.0,75,0.00,CLR,,0.00,WeatherDisplay:10.37,2013-07-26 00:09:00,
2013-07-26 10:14:00,52.0,44.3,30.28,NW,321,3.0,7.0,75,0.00,CLR,,0.00,WeatherDisplay:10.37,2013-07-26 00:14:00,
2013-07-26 10:19:00,52.1,44.4,30.28,NNW,334,3.0,9.0,75,0.00,CLR,,0.00,WeatherDisplay:10.37,2013-07-26 00:19:00,
2013-07-26 10:24:00,52.3,44.6,30.28,NNW,347,3.0,7.0,75,0.00,CLR,,0.00,WeatherDisplay:10.37,2013-07-26 00:24:00,
2013-07-26 10:29:00,52.6,44.5,30.28,NNW,339,3.0,8.0,74,0.00,CLR,,0.00,WeatherDisplay:10.37,2013-07-26 00:29:00,
2013-07-26 10:34:00,52.7,44.7,30.27,NNW,329,3.0,8.0,74,0.00,CLR,,0.00,WeatherDisplay:10.37,2013-07-26 00:34:00,
2013-07-26 10:39:00,53.2,44.8,30.27,NNW,335,5.0,8.0,73,0.00,CLR,,0.00,WeatherDisplay:10.37,2013-07-26 00:39:00,
2013-07-26 10:44:00,54.0,45.2,30.27,North,349,3.0,9.0,72,0.00,CLR,,0.00,WeatherDisplay:10.37,2013-07-26 00:44:00,
2013-07-26 10:49:00,54.7,45.5,30.27,NNW,341,2.0,12.0,71,0.00,CLR,,0.00,WeatherDisplay:10.37,2013-07-26 00:49:00,
2013-07-26 10:54:00,55.1,45.9,30.27,NNW,334,3.0,7.0,71,0.00,CLR,,0.00,WeatherDisplay:10.37,2013-07-26 00:54:00,
2013-07-26 10:59:00,55.6,45.9,30.27,NNW,330,5.0,9.0,70,0.00,CLR,,0.00,WeatherDisplay:10.37,2013-07-26 00:59:00,
2013-07-26 11:04:00,55.8,46.2,30.26,NW,307,2.0,7.0,70,0.00,CLR,,0.00,WeatherDisplay:10.37,2013-07-26 01:04:00,
2013-07-26 11:09:00,55.8,45.7,30.26,WNW,287,2.0,3.0,69,0.00,CLR,,0.00,WeatherDisplay:10.37,2013-07-26 01:09:00,
2013-07-26 11:14:00,55.8,45.7,30.26,NNW,341,1.0,8.0,69,0.00,CLR,,0.00,WeatherDisplay:10.37,2013-07-26 01:14:00,
2013-07-26 11:19:00,55.8,45.4,30.25,NNW,327,2.0,12.0,68,0.00,CLR,,0.00,WeatherDisplay:10.37,2013-07-26 01:19:00,
2013-07-26 11:24:00,55.8,45.0,30.25,NW,306,3.0,7.0,67,0.00,CLR,,0.00,WeatherDisplay:10.37,2013-07-26 01:24:00,
2013-07-26 11:29:00,55.8,45.0,30.25,West,266,2.0,12.0,67,0.00,CLR,,0.00,WeatherDisplay:10.37,2013-07-26 01:29:00,
2013-07-26 11:34:00,55.8,45.0,30.25,West,260,1.0,6.0,67,0.00,CLR,,0.00,WeatherDisplay:10.37,2013-07-26 01:34:00,
2013-07-26 11:39:00,55.9,45.1,30.25,West,280,2.0,4.0,67,0.00,CLR,,0.00,WeatherDisplay:10.37,2013-07-26 01:39:00,
2013-07-26 11:44:00,56.1,45.3,30.25,West,273,1.0,6.0,67,0.00,CLR,,0.00,WeatherDisplay:10.37,2013-07-26 01:44:00,
2013-07-26 11:49:00,56.8,45.6,30.24,WNW,289,2.0,10.0,66,0.00,CLR,,0.00,WeatherDisplay:10.37,2013-07-26 01:49:00,
2013-07-26 11:54:00,56.8,45.2,30.24,WNW,300,2.0,5.0,65,0.00,CLR,,0.00,WeatherDisplay:10.37,2013-07-26 01:54:00,
2013-07-26 11:59:00,57.0,45.0,30.24,West,272,5.0,10.0,64,0.00,CLR,,0.00,WeatherDisplay:10.37,2013-07-26 01:59:00,
2013-07-26 12:04:00,57.0,45.0,30.24,WNW,282,2.0,6.0,64,0.00,CLR,,0.00,WeatherDisplay:10.37,2013-07-26 02:04:00,
2013-07-26 12:09:00,57.4,44.9,30.23,NW,311,3.0,5.0,63,0.00,CLR,,0.00,WeatherDisplay:10.37,2013-07-26 02:09:00,
2013-07-26 12:14:00,57.4,44.9,30.23,WNW,303,3.0,6.0,63,0.00,CLR,,0.00,WeatherDisplay:10.37,2013-07-26 02:14:00,
2013-07-26 12:19:00,57.4,44.9,30.23,WNW,297,2.0,7.0,63,0.00,CLR,,0.00,WeatherDisplay:10.37,2013-07-26 02:19:00,
2013-07-26 12:24:00,57.7,44.8,30.22,WNW,291,2.0,8.0,62,0.00,CLR,,0.00,WeatherDisplay:10.37,2013-07-26 02:24:00,
2013-07-26 12:34:00,58.3,44.9,30.22,NW,306,1.0,9.0,61,0.00,CLR,,0.00,WeatherDisplay:10.37,2013-07-26 02:34:00,
2013-07-26 12:39:00,58.6,44.8,30.22,WNW,300,2.0,8.0,60,0.00,CLR,,0.00,WeatherDisplay:10.37,2013-07-26 02:39:00,
2013-07-26 12:44:00,59.2,44.4,30.22,West,266,7.0,15.0,58,0.00,CLR,,0.00,WeatherDisplay:10.37,2013-07-26 02:44:00,
2013-07-26 12:49:00,59.4,43.7,30.21,West,278,3.0,8.0,56,0.00,CLR,,0.00,WeatherDisplay:10.37,2013-07-26 02:49:00,
2013-07-26 12:54:00,59.5,43.8,30.21,WNW,295,3.0,11.0,56,0.00,CLR,,0.00,WeatherDisplay:10.37,2013-07-26 02:54:00,
2013-07-26 12:59:00,59.7,44.0,30.21,WNW,285,3.0,8.0,56,0.00,CLR,,0.00,WeatherDisplay:10.37,2013-07-26 02:59:00,
2013-07-26 13:04:00,59.9,44.2,30.21,WNW,295,1.0,8.0,56,0.00,CLR,,0.00,WeatherDisplay:10.37,2013-07-26 03:04:00,
2013-07-26 13:09:00,60.1,44.3,30.22,NW,306,3.0,12.0,56,0.00,CLR,,0.00,WeatherDisplay:10.37,2013-07-26 03:09:00,
2013-07-26 13:14:00,60.1,43.9,30.21,NW,308,3.0,8.0,55,0.00,CLR,,0.00,WeatherDisplay:10.37,2013-07-26 03:14:00,
2013-07-26 13:19:00,60.1,44.3,30.22,WNW,303,2.0,10.0,56,0.00,CLR,,0.00,WeatherDisplay:10.37,2013-07-26 03:19:00,
2013-07-26 13:24:00,60.4,44.2,30.21,WNW,301,3.0,9.0,55,0.00,CLR,,0.00,WeatherDisplay:10.37,2013-07-26 03:24:00,
2013-07-26 13:29:00,60.4,43.7,30.21,NW,322,5.0,9.0,54,0.00,CLR,,0.00,WeatherDisplay:10.37,2013-07-26 03:29:00,
2013-07-26 13:34:00,60.5,43.8,30.21,NW,317,5.0,7.0,54,0.00,CLR,,0.00,WeatherDisplay:10.37,2013-07-26 03:34:00,
2013-07-26 13:39:00,60.4,43.7,30.21,WNW,289,2.0,4.0,54,0.00,CLR,,0.00,WeatherDisplay:10.37,2013-07-26 03:39:00,
2013-07-26 13:44:00,60.6,43.9,30.21,WNW,290,5.0,7.0,54,0.00,CLR,,0.00,WeatherDisplay:10.37,2013-07-26 03:44:00,
2013-07-26 13:49:00,60.6,43.9,30.21,WNW,297,3.0,8.0,54,0.00,CLR,,0.00,WeatherDisplay:10.37,2013-07-26 03:49:00,
2013-07-26 13:54:00,60.4,43.7,30.21,NW,305,1.0,5.0,54,0.00,CLR,,0.00,WeatherDisplay:10.37,2013-07-26 03:54:00,
2013-07-26 13:59:00,60.4,43.7,30.21,WNW,298,2.0,5.0,54,0.00,CLR,,0.00,WeatherDisplay:10.37,2013-07-26 03:59:00,
2013-07-26 14:04:00,60.6,43.9,30.21,WNW,294,5.0,8.0,54,0.00,CLR,,0.00,WeatherDisplay:10.37,2013-07-26 04:04:00,
2013-07-26 14:09:00,60.6,43.4,30.21,WNW,291,2.0,8.0,53,0.00,CLR,,0.00,WeatherDisplay:10.37,2013-07-26 04:09:00,
2013-07-26 14:14:00,61.0,43.7,30.20,NW,316,2.0,7.0,53,0.00,CLR,,0.00,WeatherDisplay:10.37,2013-07-26 04:14:00,
2013-07-26 14:19:00,61.0,43.8,30.21,NW,325,1.0,9.0,53,0.00,CLR,,0.00,WeatherDisplay:10.37,2013-07-26 04:19:00,
2013-07-26 14:24:00,61.3,43.6,30.21,WNW,285,5.0,9.0,52,0.00,CLR,,0.00,WeatherDisplay:10.37,2013-07-26 04:24:00,
2013-07-26 14:29:00,61.5,43.2,30.21,WNW,296,3.0,7.0,51,0.00,CLR,,0.00,WeatherDisplay:10.37,2013-07-26 04:29:00,
2013-07-26 14:34:00,61.5,43.2,30.21,WNW,290,5.0,7.0,51,0.00,CLR,,0.00,WeatherDisplay:10.37,2013-07-26 04:34:00,
2013-07-26 14:39:00,61.7,43.4,30.20,WNW,297,1.0,4.0,51,0.00,CLR,,0.00,WeatherDisplay:10.37,2013-07-26 04:39:00,
2013-07-26 14:44:00,61.7,43.9,30.20,WNW,299,2.0,6.0,52,0.00,CLR,,0.00,WeatherDisplay:10.37,2013-07-26 04:44:00,
2013-07-26 14:49:00,61.6,43.8,30.20,NW,317,1.0,6.0,52,0.00,CLR,,0.00,WeatherDisplay:10.37,2013-07-26 04:49:00,
2013-07-26 14:54:00,61.8,43.5,30.21,WNW,301,2.0,6.0,51,0.00,CLR,,0.00,WeatherDisplay:10.37,2013-07-26 04:54:00,
2013-07-26 14:59:00,61.9,43.5,30.21,WNW,283,5.0,7.0,51,0.00,CLR,,0.00,WeatherDisplay:10.37,2013-07-26 04:59:00,
2013-07-26 15:04:00,61.9,43.5,30.20,WNW,289,1.0,6.0,51,0.00,CLR,,0.00,WeatherDisplay:10.37,2013-07-26 05:04:00,
2013-07-26 15:09:00,61.9,43.6,30.20,NW,308,2.0,7.0,51,0.00,CLR,,0.00,WeatherDisplay:10.37,2013-07-26 05:09:00,
2013-07-26 15:14:00,62.1,43.7,30.20,NW,326,2.0,7.0,51,0.00,CLR,,0.00,WeatherDisplay:10.37,2013-07-26 05:14:00,
2013-07-26 15:19:00,62.1,43.7,30.20,NW,311,2.0,6.0,51,0.00,CLR,,0.00,WeatherDisplay:10.37,2013-07-26 05:19:00,
2013-07-26 15:24:00,62.2,43.3,30.20,WNW,302,2.0,5.0,50,0.00,CLR,,0.00,WeatherDisplay:10.37,2013-07-26 05:24:00,
2013-07-26 15:29:00,62.0,43.6,30.20,WNW,303,2.0,5.0,51,0.00,CLR,,0.00,WeatherDisplay:10.37,2013-07-26 05:29:00,
2013-07-26 15:34:00,61.9,43.5,30.20,NW,315,2.0,6.0,51,0.00,CLR,,0.00,WeatherDisplay:10.37,2013-07-26 05:34:00,
2013-07-26 15:39:00,62.0,43.7,30.20,NW,314,1.0,4.0,51,0.00,CLR,,0.00,WeatherDisplay:10.37,2013-07-26 05:39:00,
2013-07-26 15:44:00,62.2,43.9,30.20,NW,310,2.0,5.0,51,0.00,CLR,,0.00,WeatherDisplay:10.37,2013-07-26 05:44:00,
2013-07-26 15:49:00,62.1,43.7,30.21,NW,311,1.0,3.0,51,0.00,CLR,,0.00,WeatherDisplay:10.37,2013-07-26 05:49:00,
2013-07-26 15:54:00,62.1,43.8,30.21,NW,309,2.0,7.0,51,0.00,CLR,,0.00,WeatherDisplay:10.37,2013-07-26 05:54:00,
2013-07-26 15:59:00,62.2,43.9,30.21,NW,313,1.0,4.0,51,0.00,CLR,,0.00,WeatherDisplay:10.37,2013-07-26 05:59:00,
2013-07-26 16:04:00,62.2,43.9,30.21,NW,316,3.0,5.0,51,0.00,CLR,,0.00,WeatherDisplay:10.37,2013-07-26 06:04:00,
2013-07-26 16:09:00,62.0,43.7,30.21,NW,306,2.0,6.0,51,0.00,CLR,,0.00,WeatherDisplay:10.37,2013-07-26 06:09:00,
2013-07-26 16:14:00,61.7,43.4,30.21,NW,309,2.0,5.0,51,0.00,CLR,,0.00,WeatherDisplay:10.37,2013-07-26 06:14:00,
2013-07-26 16:19:00,61.5,43.2,30.22,NW,309,1.0,5.0,51,0.00,CLR,,0.00,WeatherDisplay:10.37,2013-07-26 06:19:00,
2013-07-26 16:24:00,61.3,43.0,30.22,NW,308,2.0,4.0,51,0.00,CLR,,0.00,WeatherDisplay:10.37,2013-07-26 06:24:00,
2013-07-26 16:29:00,61.2,42.9,30.22,WNW,302,2.0,5.0,51,0.00,CLR,,0.00,WeatherDisplay:10.37,2013-07-26 06:29:00,
2013-07-26 16:34:00,61.0,42.7,30.22,WNW,294,1.0,5.0,51,0.00,CLR,,0.00,WeatherDisplay:10.37,2013-07-26 06:34:00,
2013-07-26 16:39:00,60.8,42.5,30.22,WNW,299,1.0,6.0,51,0.00,CLR,,0.00,WeatherDisplay:10.37,2013-07-26 06:39:00,
2013-07-26 16:44:00,60.6,42.9,30.22,NW,307,1.0,2.0,52,0.00,CLR,,0.00,WeatherDisplay:10.37,2013-07-26 06:44:00,
2013-07-26 16:49:00,60.4,42.7,30.22,NNW,329,1.0,4.0,52,0.00,CLR,,0.00,WeatherDisplay:10.37,2013-07-26 06:49:00,
2013-07-26 16:54:00,60.1,41.9,30.23,NW,321,1.0,5.0,51,0.00,CLR,,0.00,WeatherDisplay:10.37,2013-07-26 06:54:00,
2013-07-26 16:59:00,60.1,42.4,30.23,WNW,302,1.0,5.0,52,0.00,CLR,,0.00,WeatherDisplay:10.37,2013-07-26 06:59:00,
2013-07-26 17:04:00,59.9,42.2,30.23,West,281,2.0,3.0,52,0.00,CLR,,0.00,WeatherDisplay:10.37,2013-07-26 07:04:00,
2013-07-26 17:09:00,59.5,41.9,30.23,WNW,301,0.0,2.0,52,0.00,CLR,,0.00,WeatherDisplay:10.37,2013-07-26 07:09:00,
2013-07-26 17:14:00,59.5,41.8,30.23,WNW,292,1.0,2.0,52,0.00,CLR,,0.00,WeatherDisplay:10.37,2013-07-26 07:14:00,
2013-07-26 17:19:00,59.2,41.6,30.23,WNW,300,1.0,2.0,52,0.00,CLR,,0.00,WeatherDisplay:10.37,2013-07-26 07:19:00,
2013-07-26 17:24:00,59.0,41.4,30.23,NW,304,1.0,3.0,52,0.00,CLR,,0.00,WeatherDisplay:10.37,2013-07-26 07:24:00,
2013-07-26 17:29:00,58.8,41.2,30.23,NW,313,1.0,2.0,52,0.00,CLR,,0.00,WeatherDisplay:10.37,2013-07-26 07:29:00,
2013-07-26 17:34:00,58.8,41.7,30.23,NW,312,0.0,3.0,53,0.00,CLR,,0.00,WeatherDisplay:10.37,2013-07-26 07:34:00,
2013-07-26 17:39:00,58.6,41.5,30.23,NW,315,2.0,3.0,53,0.00,CLR,,0.00,WeatherDisplay:10.37,2013-07-26 07:39:00,
2013-07-26 17:44:00,58.6,41.5,30.23,NW,315,1.0,3.0,53,0.00,CLR,,0.00,WeatherDisplay:10.37,2013-07-26 07:44:00,
2013-07-26 17:49:00,58.5,40.9,30.23,NW,321,1.0,2.0,52,0.00,CLR,,0.00,WeatherDisplay:10.37,2013-07-26 07:49:00,
2013-07-26 17:54:00,58.3,41.2,30.24,NNW,331,0.0,2.0,53,0.00,CLR,,0.00,WeatherDisplay:10.37,2013-07-26 07:54:00,
2013-07-26 17:59:00,58.1,41.5,30.24,North,2,0.0,4.0,54,0.00,CLR,,0.00,WeatherDisplay:10.37,2013-07-26 07:59:00,
2013-07-26 18:04:00,57.9,41.4,30.24,NNE,23,0.0,1.0,54,0.00,CLR,,0.00,WeatherDisplay:10.37,2013-07-26 08:04:00,
2013-07-26 18:09:00,57.7,41.6,30.24,NE,37,0.0,1.0,55,0.00,CLR,,0.00,WeatherDisplay:10.37,2013-07-26 08:09:00,
2013-07-26 18:14:00,57.3,41.3,30.25,NNE,17,1.0,2.0,55,0.00,CLR,,0.00,WeatherDisplay:10.37,2013-07-26 08:14:00,
2013-07-26 18:19:00,57.0,41.5,30.25,NNE,14,1.0,2.0,56,0.00,CLR,,0.00,WeatherDisplay:10.37,2013-07-26 08:19:00,
2013-07-26 18:24:00,56.8,41.3,30.25,NNE,19,0.0,2.0,56,0.00,CLR,,0.00,WeatherDisplay:10.37,2013-07-26 08:24:00,
2013-07-26 18:29:00,56.5,41.5,30.25,ENE,70,0.0,1.0,57,0.00,CLR,,0.00,WeatherDisplay:10.37,2013-07-26 08:29:00,
2013-07-26 18:34:00,56.4,41.8,30.25,ENE,66,1.0,2.0,58,0.00,CLR,,0.00,WeatherDisplay:10.37,2013-07-26 08:34:00,
2013-07-26 18:39:00,56.0,41.8,30.25,NE,48,0.0,1.0,59,0.00,CLR,,0.00,WeatherDisplay:10.37,2013-07-26 08:39:00,
2013-07-26 18:44:00,55.7,42.0,30.25,East,92,0.0,0.0,60,0.00,CLR,,0.00,WeatherDisplay:10.37,2013-07-26 08:44:00,
2013-07-26 18:49:00,55.4,42.1,30.25,ESE,108,0.0,1.0,61,0.00,CLR,,0.00,WeatherDisplay:10.37,2013-07-26 08:49:00,
2013-07-26 18:54:00,55.2,41.5,30.25,ENE,58,2.0,3.0,60,0.00,CLR,,0.00,WeatherDisplay:10.37,2013-07-26 08:54:00,
2013-07-26 18:59:00,55.0,41.4,30.25,NNE,17,1.0,2.0,60,0.00,CLR,,0.00,WeatherDisplay:10.37,2013-07-26 08:59:00,
2013-07-26 19:04:00,55.0,41.8,30.26,NNE,25,0.0,1.0,61,0.00,CLR,,0.00,WeatherDisplay:10.37,2013-07-26 09:04:00,
2013-07-26 19:09:00,54.8,41.6,30.25,NNE,21,1.0,2.0,61,0.00,CLR,,0.00,WeatherDisplay:10.37,2013-07-26 09:09:00,
2013-07-26 19:14:00,54.7,41.5,30.25,NNE,22,0.0,2.0,61,0.00,CLR,,0.00,WeatherDisplay:10.37,2013-07-26 09:14:00,
2013-07-26 19:19:00,54.5,41.7,30.26,ENE,62,0.0,1.0,62,0.00,CLR,,0.00,WeatherDisplay:10.37,2013-07-26 09:19:00,
2013-07-26 19:24:00,54.3,41.6,30.26,ENE,67,0.0,1.0,62,0.00,CLR,,0.00,WeatherDisplay:10.37,2013-07-26 09:24:00,
2013-07-26 19:29:00,54.3,42.0,30.26,NE,35,0.0,1.0,63,0.00,CLR,,0.00,WeatherDisplay:10.37,2013-07-26 09:29:00,
2013-07-26 19:34:00,54.1,41.8,30.26,NE,56,0.0,1.0,63,0.00,CLR,,0.00,WeatherDisplay:10.37,2013-07-26 09:34:00,
2013-07-26 19:39:00,53.8,41.5,30.26,ENE,76,0.0,0.0,63,0.00,CLR,,0.00,WeatherDisplay:10.37,2013-07-26 09:39:00,
2013-07-26 19:44:00,53.4,41.5,30.26,East,90,0.0,0.0,64,0.00,CLR,,0.00,WeatherDisplay:10.37,2013-07-26 09:44:00,
2013-07-26 19:49:00,53.2,41.4,30.26,East,98,0.0,0.0,64,0.00,CLR,,0.00,WeatherDisplay:10.37,2013-07-26 09:49:00,
2013-07-26 19:54:00,52.9,41.0,30.26,ENE,63,0.0,0.0,64,0.00,CLR,,0.00,WeatherDisplay:10.37,2013-07-26 09:54:00,
2013-07-26 19:59:00,52.7,41.3,30.26,NNE,32,0.0,1.0,65,0.00,CLR,,0.00,WeatherDisplay:10.37,2013-07-26 09:59:00,
2013-07-26 20:04:00,52.5,41.1,30.26,ENE,59,0.0,0.0,65,0.00,CLR,,0.00,WeatherDisplay:10.37,2013-07-26 10:04:00,
2013-07-26 20:09:00,52.3,40.9,30.26,SSW,192,0.0,0.0,65,0.00,CLR,,0.00,WeatherDisplay:10.37,2013-07-26 10:09:00,
2013-07-26 20:14:00,52.0,41.0,30.26,WSW,239,0.0,0.0,66,0.00,CLR,,0.00,WeatherDisplay:10.37,2013-07-26 10:14:00,
2013-07-26 20:19:00,52.0,41.0,30.26,West,277,0.0,0.0,66,0.00,CLR,,0.00,WeatherDisplay:10.37,2013-07-26 10:19:00,
2013-07-26 20:24:00,51.7,40.7,30.26,WNW,294,0.0,0.0,66,0.00,CLR,,0.00,WeatherDisplay:10.37,2013-07-26 10:24:00,
2013-07-26 20:29:00,51.6,40.6,30.27,NW,320,0.0,0.0,66,0.00,CLR,,0.00,WeatherDisplay:10.37,2013-07-26 10:29:00,
2013-07-26 20:34:00,51.6,40.6,30.27,North,355,0.0,1.0,66,0.00,CLR,,0.00,WeatherDisplay:10.37,2013-07-26 10:34:00,
2013-07-26 20:39:00,51.6,41.0,30.27,SSW,203,0.0,0.0,67,0.00,CLR,,0.00,WeatherDisplay:10.37,2013-07-26 10:39:00,
2013-07-26 20:44:00,51.4,40.8,30.27,SSW,211,0.0,0.0,67,0.00,CLR,,0.00,WeatherDisplay:10.37,2013-07-26 10:44:00,
2013-07-26 20:49:00,51.1,40.6,30.27,SW,218,0.0,0.0,67,0.00,CLR,,0.00,WeatherDisplay:10.37,2013-07-26 10:49:00,
2013-07-26 20:54:00,50.9,40.7,30.27,SSW,206,0.0,0.0,68,0.00,CLR,,0.00,WeatherDisplay:10.37,2013-07-26 10:54:00,
2013-07-26 20:59:00,50.9,40.7,30.27,SSW,204,0.0,0.0,68,0.00,CLR,,0.00,WeatherDisplay:10.37,2013-07-26 10:59:00,
2013-07-26 21:04:00,50.7,40.5,30.27,NW,325,0.0,1.0,68,0.00,CLR,,0.00,WeatherDisplay:10.37,2013-07-26 11:04:00,
2013-07-26 21:09:00,50.7,40.5,30.27,North,354,0.0,0.0,68,0.00,CLR,,0.00,WeatherDisplay:10.37,2013-07-26 11:09:00,
2013-07-26 21:14:00,50.7,40.5,30.27,North,4,0.0,1.0,68,0.00,CLR,,0.00,WeatherDisplay:10.37,2013-07-26 11:14:00,
2013-07-26 21:19:00,50.4,40.2,30.28,SSW,197,0.0,0.0,68,0.00,CLR,,0.00,WeatherDisplay:10.37,2013-07-26 11:19:00,
2013-07-26 21:24:00,50.2,40.4,30.28,WSW,243,0.0,0.0,69,0.00,CLR,,0.00,WeatherDisplay:10.37,2013-07-26 11:24:00,
2013-07-26 21:29:00,50.2,40.4,30.28,NNW,347,0.0,0.0,69,0.00,CLR,,0.00,WeatherDisplay:10.37,2013-07-26 11:29:00,
2013-07-26 21:34:00,49.8,40.1,30.28,NNW,344,0.0,0.0,69,0.00,CLR,,0.00,WeatherDisplay:10.37,2013-07-26 11:34:00,
2013-07-26 21:39:00,49.8,40.1,30.28,NNW,330,0.0,0.0,69,0.00,CLR,,0.00,WeatherDisplay:10.37,2013-07-26 11:39:00,
2013-07-26 21:44:00,49.8,40.1,30.28,South,181,0.0,0.0,69,0.00,CLR,,0.00,WeatherDisplay:10.37,2013-07-26 11:44:00,
2013-07-26 21:49:00,49.6,39.9,30.28,SSW,192,0.0,0.0,69,0.00,CLR,,0.00,WeatherDisplay:10.37,2013-07-26 11:49:00,
2013-07-26 21:54:00,49.6,39.9,30.28,SSW,199,0.0,0.0,69,0.00,CLR,,0.00,WeatherDisplay:10.37,2013-07-26 11:54:00,
2013-07-26 21:59:00,49.3,39.9,30.28,SSE,168,0.0,0.0,70,0.00,CLR,,0.00,WeatherDisplay:10.37,2013-07-26 11:59:00,
2013-07-26 22:04:00,49.3,39.9,30.28,SSE,163,0.0,0.0,70,0.00,CLR,,0.00,WeatherDisplay:10.37,2013-07-26 12:04:00,
2013-07-26 22:09:00,49.1,39.7,30.28,SSE,155,0.0,0.0,70,0.00,CLR,,0.00,WeatherDisplay:10.37,2013-07-26 12:09:00,
2013-07-26 22:14:00,49.1,40.1,30.29,ESE,115,1.0,2.0,71,0.00,CLR,,0.00,WeatherDisplay:10.37,2013-07-26 12:14:00,
2013-07-26 22:19:00,48.9,39.9,30.29,NNE,12,0.0,2.0,71,0.00,CLR,,0.00,WeatherDisplay:10.37,2013-07-26 12:19:00,
2013-07-26 22:29:00,48.8,39.4,30.29,WNW,296,1.0,2.0,70,0.00,CLR,,0.00,WeatherDisplay:10.37,2013-07-26 12:29:00,
2013-07-26 22:34:00,48.5,39.5,30.29,West,277,0.0,1.0,71,0.00,CLR,,0.00,WeatherDisplay:10.37,2013-07-26 12:34:00,
2013-07-26 22:39:00,48.4,39.4,30.29,WNW,295,0.0,0.0,71,0.00,CLR,,0.00,WeatherDisplay:10.37,2013-07-26 12:39:00,
2013-07-26 22:44:00,48.6,39.6,30.29,WNW,293,0.0,0.0,71,0.00,CLR,,0.00,WeatherDisplay:10.37,2013-07-26 12:44:00,
2013-07-26 22:49:00,48.4,39.4,30.30,West,274,0.0,0.0,71,0.00,CLR,,0.00,WeatherDisplay:10.37,2013-07-26 12:49:00,
2013-07-26 22:54:00,48.4,39.4,30.30,WSW,255,0.0,0.0,71,0.00,CLR,,0.00,WeatherDisplay:10.37,2013-07-26 12:54:00,
2013-07-26 22:59:00,48.1,39.1,30.30,SW,222,1.0,1.0,71,0.00,CLR,,0.00,WeatherDisplay:10.37,2013-07-26 12:59:00,
2013-07-26 23:04:00,48.0,39.1,30.29,SW,230,0.0,1.0,71,0.00,CLR,,0.00,WeatherDisplay:10.37,2013-07-26 13:04:00,
2013-07-26 23:14:00,47.5,38.9,30.30,WNW,283,2.0,3.0,72,0.00,CLR,,0.00,WeatherDisplay:10.37,2013-07-26 13:14:00,
2013-07-26 23:19:00,47.1,38.6,30.30,North,357,2.0,3.0,72,0.00,CLR,,0.00,WeatherDisplay:10.37,2013-07-26 13:19:00,
2013-07-26 23:24:00,47.3,39.1,30.30,NNW,343,0.0,1.0,73,0.00,CLR,,0.00,WeatherDisplay:10.37,2013-07-26 13:24:00,
2013-07-26 23:29:00,47.3,39.1,30.30,NNW,343,2.0,3.0,73,0.00,CLR,,0.00,WeatherDisplay:10.37,2013-07-26 13:29:00,
2013-07-26 23:34:00,47.2,39.0,30.30,NNW,345,1.0,3.0,73,0.00,CLR,,0.00,WeatherDisplay:10.37,2013-07-26 13:34:00,
2013-07-26 23:39:00,47.5,38.9,30.30,NNW,328,0.0,1.0,72,0.00,CLR,,0.00,WeatherDisplay:10.37,2013-07-26 13:39:00,
2013-07-26 23:44:00,47.1,38.6,30.30,SW,228,0.0,1.0,72,0.00,CLR,,0.00,WeatherDisplay:10.37,2013-07-26 13:44:00,
2013-07-26 23:49:00,47.1,38.6,30.30,South,182,0.0,0.0,72,0.00,CLR,,0.00,WeatherDisplay:10.37,2013-07-26 13:49:00,
2013-07-26 23:54:00,46.9,38.4,30.30,SW,216,0.0,0.0,72,0.00,CLR,,0.00,WeatherDisplay:10.37,2013-07-26 13:54:00,
2013-07-26 23:59:00,46.9,38.7,30.30,WNW,288,0.0,0.0,73,0.00,CLR,,0.00,WeatherDisplay:10.37,2013-07-26 13:59:00,